createdAt,value
2022-12-22T00:01:31.571Z,53.60
2022-12-22T00:04:24.620Z,53.66
2022-12-22T00:07:10.044Z,53.72
2022-12-22T00:09:59.963Z,53.86
2022-12-22T00:12:45.291Z,54.07
2022-12-22T00:15:34.830Z,54.09
2022-12-22T00:18:20.098Z,54.19
2022-12-22T00:21:05.347Z,54.10
2022-12-22T00:23:50.724Z,53.95
2022-12-22T00:26:36.008Z,54.01
2022-12-22T00:29:21.455Z,53.98
2022-12-22T00:32:06.727Z,53.83
2022-12-22T00:34:56.095Z,54.18
2022-12-22T00:37:47.943Z,53.91
2022-12-22T00:40:36.894Z,54.14
2022-12-22T00:43:22.166Z,54.19
2022-12-22T00:46:07.365Z,53.75
2022-12-22T00:48:52.828Z,54.19
2022-12-22T00:51:38.200Z,54.22
2022-12-22T00:54:27.353Z,54.55
2022-12-22T00:57:12.669Z,55.45
2022-12-22T01:00:00.460Z,55.49
2022-12-22T01:02:45.872Z,55.30
2022-12-22T01:05:33.511Z,54.93
2022-12-22T01:08:18.833Z,54.93
2022-12-22T01:11:04.207Z,54.87
2022-12-22T01:13:49.521Z,54.82
2022-12-22T01:16:35.056Z,54.85
2022-12-22T01:19:23.250Z,54.77
2022-12-22T01:22:08.512Z,54.71
2022-12-22T01:24:53.846Z,54.67
2022-12-22T01:27:42.150Z,54.73
2022-12-22T01:30:30.614Z,54.84
2022-12-22T01:33:17.109Z,54.77
2022-12-22T01:36:02.262Z,55.12
2022-12-22T01:38:47.851Z,54.92
2022-12-22T01:41:33.921Z,55.12
2022-12-22T01:44:19.058Z,55.58
2022-12-22T01:47:04.794Z,55.94
2022-12-22T01:49:50.116Z,56.00
2022-12-22T01:52:35.439Z,56.04
2022-12-22T01:55:26.560Z,55.85
2022-12-22T01:58:14.217Z,55.91
2022-12-22T02:00:59.568Z,55.84
2022-12-22T02:03:44.999Z,56.25
2022-12-22T02:06:45.777Z,56.39
2022-12-22T02:09:51.369Z,56.38
2022-12-22T02:12:49.098Z,56.28
2022-12-22T02:15:53.192Z,56.23
2022-12-22T02:18:42.606Z,55.97
2022-12-22T02:21:31.882Z,56.06
2022-12-22T02:24:26.149Z,55.82
2022-12-22T02:27:11.425Z,55.65
2022-12-22T02:29:59.749Z,55.53
2022-12-22T02:32:45.159Z,55.31
2022-12-22T02:35:31.701Z,55.42
2022-12-22T02:38:29.026Z,55.20
2022-12-22T02:41:17.220Z,55.06
2022-12-22T02:44:19.410Z,55.19
2022-12-22T02:47:11.217Z,55.15
2022-12-22T02:50:12.402Z,55.24
2022-12-22T02:52:58.449Z,54.84
2022-12-22T02:55:46.416Z,54.85
2022-12-22T02:58:32.311Z,54.89
2022-12-22T03:01:20.597Z,54.69
2022-12-22T03:04:06.085Z,54.06
2022-12-22T03:06:51.490Z,53.48
2022-12-22T03:09:37.963Z,53.98
2022-12-22T03:12:25.436Z,54.23
2022-12-22T03:15:13.084Z,53.75
2022-12-22T03:17:58.453Z,53.77
2022-12-22T03:20:43.546Z,53.77
2022-12-22T03:23:33.322Z,53.74
2022-12-22T03:26:00.277Z,53.42
2022-12-22T03:28:29.538Z,53.56
2022-12-22T03:31:00.524Z,53.44
2022-12-22T03:33:29.636Z,53.63
2022-12-22T03:35:56.433Z,53.82
2022-12-22T03:38:27.170Z,53.86
2022-12-22T03:40:56.905Z,54.58
2022-12-22T03:43:42.243Z,54.60
2022-12-22T03:46:30.797Z,55.07
2022-12-22T03:49:11.292Z,55.54
2022-12-22T03:51:42.298Z,56.16
2022-12-22T03:54:09.598Z,56.77
2022-12-22T03:56:36.495Z,57.27
2022-12-22T03:59:05.788Z,57.60
2022-12-22T04:01:41.197Z,57.48
2022-12-22T04:04:08.031Z,57.82
2022-12-22T04:06:34.709Z,57.68
2022-12-22T04:09:01.294Z,58.04
2022-12-22T04:11:46.458Z,58.60
2022-12-22T04:14:18.448Z,58.92
2022-12-22T04:16:45.071Z,58.87
2022-12-22T04:19:11.681Z,58.80
2022-12-22T04:21:40.821Z,59.19
2022-12-22T04:24:10.818Z,59.40
2022-12-22T04:26:40.087Z,58.75
2022-12-22T04:29:06.687Z,58.35
2022-12-22T04:31:35.705Z,58.82
2022-12-22T04:34:02.398Z,59.33
2022-12-22T04:36:28.976Z,59.02
2022-12-22T04:38:58.593Z,58.94
2022-12-22T04:41:25.143Z,58.52
2022-12-22T04:43:51.859Z,58.84
2022-12-22T04:46:18.479Z,59.07
2022-12-22T04:48:45.167Z,58.83
2022-12-22T04:51:16.477Z,58.59
2022-12-22T04:53:43.266Z,58.52
2022-12-22T04:56:12.314Z,59.53
2022-12-22T04:58:41.605Z,59.93
2022-12-22T05:01:16.856Z,60.04
2022-12-22T05:03:46.145Z,59.02
2022-12-22T05:06:13.158Z,59.42
2022-12-22T05:08:39.772Z,59.52
2022-12-22T05:11:08.889Z,59.45
2022-12-22T05:13:38.124Z,59.63
2022-12-22T05:16:06.681Z,59.65
2022-12-22T05:18:33.932Z,59.72
2022-12-22T05:21:07.603Z,60.08
2022-12-22T05:23:34.206Z,60.35
2022-12-22T05:26:03.331Z,60.25
2022-12-22T05:28:30.055Z,60.57
2022-12-22T05:30:56.652Z,60.11
2022-12-22T05:33:25.729Z,60.04
2022-12-22T05:35:52.599Z,60.07
2022-12-22T05:38:21.037Z,59.76
2022-12-22T05:40:48.333Z,60.00
2022-12-22T05:43:15.036Z,59.38
2022-12-22T05:45:44.159Z,59.80
2022-12-22T05:48:18.898Z,59.88
2022-12-22T05:50:49.087Z,60.16
2022-12-22T05:53:18.206Z,60.48
2022-12-22T05:55:44.852Z,60.30
2022-12-22T05:58:11.499Z,60.43
2022-12-22T06:00:43.165Z,60.44
2022-12-22T06:03:12.667Z,60.16
2022-12-22T06:05:39.383Z,60.23
2022-12-22T06:08:06.196Z,60.51
2022-12-22T06:10:35.963Z,60.59
2022-12-22T06:13:05.379Z,60.40
2022-12-22T06:15:34.339Z,60.35
2022-12-22T06:18:01.065Z,60.38
2022-12-22T06:20:30.317Z,60.45
2022-12-22T06:27:03.359Z,60.28
2022-12-22T06:32:43.385Z,60.95
2022-12-22T06:35:10.570Z,61.00
2022-12-22T06:37:39.616Z,60.96
2022-12-22T06:40:07.213Z,61.15
2022-12-22T06:45:36.712Z,61.55
2022-12-22T06:48:08.404Z,61.26
2022-12-22T06:50:40.446Z,60.60
2022-12-22T06:53:09.590Z,60.21
2022-12-22T06:55:36.766Z,60.24
2022-12-22T06:58:03.609Z,60.96
2022-12-22T07:00:30.321Z,61.38
2022-12-22T07:02:57.290Z,62.12
2022-12-22T07:05:26.742Z,62.42
2022-12-22T07:07:53.430Z,62.23
2022-12-22T07:10:43.384Z,62.32
2022-12-22T07:13:24.233Z,62.16
2022-12-22T07:15:59.587Z,61.93
2022-12-22T07:18:28.678Z,61.80
2022-12-22T07:20:57.774Z,61.95
2022-12-22T07:23:27.052Z,62.20
2022-12-22T07:25:53.766Z,61.98
2022-12-22T07:28:21.134Z,62.00
2022-12-22T07:30:51.204Z,61.94
2022-12-22T07:33:18.004Z,61.48
2022-12-22T07:35:46.925Z,61.77
2022-12-22T07:38:13.724Z,61.45
2022-12-22T07:40:42.476Z,61.34
2022-12-22T07:43:09.658Z,61.62
2022-12-22T07:45:36.732Z,61.46
2022-12-22T07:48:24.109Z,61.46
2022-12-22T07:50:51.229Z,61.33
2022-12-22T07:53:17.806Z,61.11
2022-12-22T07:55:44.456Z,61.22
2022-12-22T07:58:13.336Z,61.53
2022-12-22T08:00:42.595Z,61.11
2022-12-22T08:03:09.379Z,61.03
2022-12-22T08:05:37.280Z,60.78
2022-12-22T08:08:03.989Z,60.95
2022-12-22T08:10:33.125Z,60.73
2022-12-22T08:12:59.864Z,61.08
2022-12-22T08:15:26.504Z,60.95
2022-12-22T08:17:53.181Z,60.73
2022-12-22T08:20:19.779Z,60.84
2022-12-22T08:22:47.553Z,60.61
2022-12-22T08:25:16.847Z,60.31
2022-12-22T08:27:44.830Z,60.21
2022-12-22T08:30:11.615Z,59.73
2022-12-22T08:32:39.752Z,59.52
2022-12-22T08:35:06.747Z,59.43
2022-12-22T08:37:41.395Z,59.06
2022-12-22T08:40:37.742Z,59.12
2022-12-22T08:43:07.816Z,59.08
2022-12-22T08:45:36.951Z,59.51
2022-12-22T08:48:06.053Z,59.35
2022-12-22T08:50:35.206Z,59.21
2022-12-22T08:53:05.528Z,59.52
2022-12-22T08:55:32.227Z,59.47
2022-12-22T08:57:58.881Z,59.44
2022-12-22T09:00:25.641Z,59.68
2022-12-22T09:02:52.587Z,59.21
2022-12-22T09:05:19.484Z,58.71
2022-12-22T09:07:49.182Z,59.64
2022-12-22T09:10:18.170Z,59.07
2022-12-22T09:12:45.029Z,59.77
2022-12-22T09:15:14.791Z,59.15
2022-12-22T09:17:44.544Z,59.56
2022-12-22T09:20:12.308Z,60.52
2022-12-22T09:22:38.921Z,59.93
2022-12-22T09:25:08.170Z,59.67
2022-12-22T09:27:34.793Z,59.24
2022-12-22T09:30:01.484Z,59.14
2022-12-22T09:32:28.138Z,58.38
2022-12-22T09:34:54.768Z,58.89
2022-12-22T09:37:21.432Z,58.22
2022-12-22T09:39:48.280Z,58.03
2022-12-22T09:42:15.963Z,58.63
2022-12-22T09:44:46.056Z,57.10
2022-12-22T09:47:15.223Z,57.64
2022-12-22T09:49:41.785Z,57.47
2022-12-22T09:52:18.279Z,57.27
2022-12-22T09:54:45.044Z,57.31
2022-12-22T09:57:14.110Z,57.08
2022-12-22T09:59:40.818Z,56.93
2022-12-22T10:02:16.005Z,57.29
2022-12-22T10:05:08.146Z,57.47
2022-12-22T10:07:35.992Z,57.52
2022-12-22T10:10:05.871Z,57.72
2022-12-22T10:12:32.537Z,57.09
2022-12-22T10:14:59.120Z,57.48
2022-12-22T10:17:32.802Z,57.46
2022-12-22T10:20:17.712Z,57.15
2022-12-22T10:22:48.874Z,57.18
2022-12-22T10:25:52.435Z,56.66
2022-12-22T10:28:23.748Z,56.34
2022-12-22T10:31:13.212Z,55.83
2022-12-22T10:33:47.072Z,55.75
2022-12-22T10:36:37.257Z,54.92
2022-12-22T10:39:04.122Z,55.42
2022-12-22T10:41:35.184Z,55.65
2022-12-22T10:44:01.901Z,55.41
2022-12-22T10:46:47.728Z,54.58
2022-12-22T10:49:24.189Z,54.83
2022-12-22T10:52:11.099Z,55.52
2022-12-22T10:54:44.290Z,56.27
2022-12-22T10:57:13.120Z,56.61
2022-12-22T10:59:51.890Z,56.64
2022-12-22T11:02:22.174Z,55.76
2022-12-22T11:04:54.663Z,53.97
2022-12-22T11:07:29.223Z,53.20
2022-12-22T11:09:56.307Z,52.40
2022-12-22T11:12:34.180Z,52.21
2022-12-22T11:15:12.034Z,50.48
2022-12-22T11:17:44.781Z,50.57
2022-12-22T11:20:11.485Z,48.87
2022-12-22T11:22:42.004Z,49.06
2022-12-22T11:25:30.464Z,50.30
2022-12-22T11:27:57.269Z,50.67
2022-12-22T11:30:26.609Z,48.79
2022-12-22T11:33:00.681Z,48.48
2022-12-22T11:35:35.218Z,48.30
2022-12-22T11:38:24.258Z,47.90
2022-12-22T11:41:19.473Z,49.67
2022-12-22T11:43:57.644Z,50.93
2022-12-22T11:46:35.095Z,50.64
2022-12-22T11:49:20.399Z,50.18
2022-12-22T11:51:56.144Z,50.77
2022-12-22T11:54:43.994Z,51.05
2022-12-22T11:57:19.566Z,51.23
2022-12-22T12:00:05.142Z,51.29
2022-12-22T12:02:46.911Z,51.50
2022-12-22T12:05:19.469Z,51.78
2022-12-22T12:07:48.824Z,51.83
2022-12-22T12:10:15.453Z,51.22
2022-12-22T12:12:45.312Z,51.70
2022-12-22T12:15:30.331Z,51.61
2022-12-22T12:18:12.001Z,52.00
2022-12-22T12:20:41.607Z,52.48
2022-12-22T12:23:19.433Z,52.64
2022-12-22T12:25:55.215Z,53.15
2022-12-22T12:28:25.231Z,53.31
2022-12-22T12:30:55.671Z,53.95
2022-12-22T12:33:31.415Z,53.89
2022-12-22T12:36:33.360Z,53.73
2022-12-22T12:39:17.378Z,53.40
2022-12-22T12:41:59.198Z,53.51
2022-12-22T12:44:30.735Z,53.51
2022-12-22T12:47:02.618Z,53.03
2022-12-22T12:49:34.539Z,53.37
2022-12-22T12:52:10.496Z,53.69
2022-12-22T12:54:43.760Z,53.54
2022-12-22T12:57:31.032Z,53.56
2022-12-22T12:59:58.473Z,53.43
2022-12-22T13:02:27.988Z,53.58
2022-12-22T13:05:13.205Z,53.55
2022-12-22T13:07:59.031Z,53.49
2022-12-22T13:10:25.790Z,53.12
2022-12-22T13:12:53.381Z,53.03
2022-12-22T13:15:34.818Z,53.44
2022-12-22T13:18:05.469Z,53.21
2022-12-22T13:20:33.199Z,54.12
2022-12-22T13:23:02.635Z,54.64
2022-12-22T13:25:41.624Z,55.02
2022-12-22T13:28:13.947Z,54.98
2022-12-22T13:30:40.703Z,55.04
2022-12-22T13:33:09.870Z,55.47
2022-12-22T13:35:47.080Z,56.38
2022-12-22T13:38:31.579Z,57.18
2022-12-22T13:41:05.568Z,57.44
2022-12-22T13:43:32.320Z,57.72
2022-12-22T13:46:00.339Z,57.99
2022-12-22T13:48:43.304Z,58.32
2022-12-22T13:51:15.109Z,58.23
2022-12-22T13:54:08.953Z,58.45
2022-12-22T13:56:40.946Z,58.86
2022-12-22T13:59:16.969Z,58.93
2022-12-22T14:02:05.567Z,58.83
2022-12-22T14:04:32.802Z,59.13
2022-12-22T14:07:11.196Z,58.67
2022-12-22T14:09:37.851Z,58.71
2022-12-22T14:12:08.408Z,59.49
2022-12-22T14:14:44.344Z,59.32
2022-12-22T14:17:24.075Z,59.67
2022-12-22T14:19:55.705Z,60.32
2022-12-22T14:22:29.455Z,60.18
2022-12-22T14:25:01.786Z,59.97
2022-12-22T14:27:43.039Z,59.69
2022-12-22T14:30:20.956Z,59.80
2022-12-22T14:32:55.876Z,60.18
2022-12-22T14:35:24.508Z,60.20
2022-12-22T14:37:51.349Z,60.58
2022-12-22T14:40:37.297Z,61.31
2022-12-22T14:43:07.578Z,61.72
2022-12-22T14:45:34.315Z,61.78
2022-12-22T14:48:03.704Z,61.79
2022-12-22T14:50:38.862Z,62.23
2022-12-22T14:53:08.144Z,63.24
2022-12-22T14:55:40.366Z,64.18
2022-12-22T14:58:10.001Z,64.65
2022-12-22T15:00:36.818Z,65.64
2022-12-22T15:03:08.269Z,66.46
2022-12-22T15:05:40.936Z,67.36
2022-12-22T15:08:33.284Z,68.23
2022-12-22T15:11:03.007Z,68.86
2022-12-22T15:13:29.794Z,68.84
2022-12-22T15:15:59.391Z,68.76
2022-12-22T15:18:26.846Z,68.98
2022-12-22T15:20:58.893Z,68.89
2022-12-22T15:23:25.496Z,69.48
2022-12-22T15:25:52.179Z,69.53
2022-12-22T15:28:18.774Z,69.78
2022-12-22T15:30:45.866Z,70.38
2022-12-22T15:33:16.944Z,70.67
2022-12-22T15:35:46.541Z,71.20
2022-12-22T15:38:17.675Z,71.31
2022-12-22T15:40:46.356Z,71.33
2022-12-22T15:43:29.229Z,70.98
2022-12-22T15:46:04.695Z,70.94
2022-12-22T15:48:35.975Z,69.95
2022-12-22T15:51:06.495Z,70.52
2022-12-22T15:53:33.428Z,71.28
2022-12-22T15:56:02.417Z,71.71
2022-12-22T15:58:31.437Z,72.06
2022-12-22T16:00:58.149Z,72.22
2022-12-22T16:03:24.972Z,72.09
2022-12-22T16:05:59.638Z,72.43
2022-12-22T16:08:30.643Z,71.49
2022-12-22T16:11:07.488Z,71.17
2022-12-22T16:13:40.857Z,71.16
2022-12-22T16:16:08.556Z,71.98
2022-12-22T16:18:37.686Z,72.25
2022-12-22T16:21:12.145Z,72.20
2022-12-22T16:23:43.690Z,73.14
2022-12-22T16:26:12.106Z,73.33
2022-12-22T16:28:41.881Z,73.64
2022-12-22T16:31:11.790Z,74.24
2022-12-22T16:33:38.581Z,74.06
2022-12-22T16:36:07.321Z,74.12
2022-12-22T16:38:35.917Z,74.54
2022-12-22T16:41:03.704Z,74.59
2022-12-22T16:46:22.584Z,74.98
2022-12-22T16:48:53.448Z,75.36
2022-12-22T16:51:23.299Z,75.44
2022-12-22T16:53:53.735Z,75.43
2022-12-22T16:56:26.683Z,75.12
2022-12-22T16:58:53.472Z,75.05
2022-12-22T17:01:36.473Z,74.74
2022-12-22T17:04:10.142Z,74.47
2022-12-22T17:06:41.575Z,74.23
2022-12-22T17:09:13.676Z,74.07
2022-12-22T17:11:40.335Z,73.78
2022-12-22T17:14:08.203Z,73.43
2022-12-22T17:16:35.021Z,73.34
2022-12-22T17:19:04.111Z,73.51
2022-12-22T17:21:30.809Z,74.22
2022-12-22T17:24:03.853Z,74.23
2022-12-22T17:26:31.416Z,74.69
2022-12-22T17:28:58.761Z,74.88
2022-12-22T17:31:26.416Z,75.21
2022-12-22T17:33:56.673Z,74.95
2022-12-22T17:36:33.681Z,74.83
2022-12-22T17:39:00.404Z,74.47
2022-12-22T17:41:27.096Z,74.25
2022-12-22T17:43:53.787Z,74.12
2022-12-22T17:46:20.813Z,73.84
2022-12-22T17:48:47.789Z,73.44
2022-12-22T17:51:15.754Z,73.31
2022-12-22T17:53:43.553Z,73.64
2022-12-22T17:56:19.685Z,72.95
2022-12-22T17:58:46.718Z,73.11
2022-12-22T18:01:26.147Z,73.04
2022-12-22T18:03:55.703Z,73.24
2022-12-22T18:06:24.146Z,73.20
2022-12-22T18:08:56.243Z,72.54
2022-12-22T18:11:23.099Z,72.72
2022-12-22T18:13:52.533Z,72.07
2022-12-22T18:16:20.559Z,72.27
2022-12-22T18:18:49.662Z,72.60
2022-12-22T18:21:19.640Z,72.83
2022-12-22T18:23:50.738Z,73.37
2022-12-22T18:26:22.273Z,73.81
2022-12-22T18:28:49.142Z,73.62
2022-12-22T18:31:20.718Z,74.24
2022-12-22T18:33:47.526Z,74.65
2022-12-22T18:36:18.308Z,75.01
2022-12-22T18:38:45.343Z,75.31
2022-12-22T18:41:13.344Z,76.25
2022-12-22T18:43:39.931Z,77.43
2022-12-22T18:46:08.805Z,78.56
2022-12-22T18:48:35.380Z,79.80
2022-12-22T18:51:02.219Z,80.71
2022-12-22T18:53:29.744Z,80.54
2022-12-22T18:55:59.692Z,81.73
2022-12-22T18:58:29.532Z,82.40
2022-12-22T19:00:56.893Z,82.16
2022-12-22T19:03:29.167Z,82.49
2022-12-22T19:05:56.303Z,82.96
2022-12-22T19:08:24.380Z,82.68
2022-12-22T19:11:14.899Z,83.15
2022-12-22T19:13:43.282Z,83.65
2022-12-22T19:16:12.628Z,83.31
2022-12-22T19:18:41.942Z,83.40
2022-12-22T19:21:15.430Z,83.28
2022-12-22T19:23:44.986Z,83.08
2022-12-22T19:26:22.982Z,83.15
2022-12-22T19:28:52.600Z,82.93
2022-12-22T19:31:21.512Z,82.37
2022-12-22T19:33:50.911Z,82.33
2022-12-22T19:36:25.659Z,82.89
2022-12-22T19:39:04.129Z,82.23
2022-12-22T19:41:34.841Z,82.42
2022-12-22T19:44:01.723Z,82.64
2022-12-22T19:46:29.286Z,82.27
2022-12-22T19:48:57.264Z,82.83
2022-12-22T19:51:24.034Z,82.70
2022-12-22T19:53:50.809Z,82.73
2022-12-22T19:56:20.480Z,82.57
2022-12-22T19:58:47.220Z,82.86
2022-12-22T20:01:13.917Z,82.97
2022-12-22T20:03:40.857Z,83.23
2022-12-22T20:06:10.042Z,83.39
2022-12-22T20:08:38.886Z,83.84
2022-12-22T20:11:10.884Z,83.87
2022-12-22T20:13:37.602Z,84.31
2022-12-22T20:16:06.919Z,85.26
2022-12-22T20:18:36.526Z,86.14
2022-12-22T20:21:04.229Z,87.01
2022-12-22T20:23:33.162Z,87.73
2022-12-22T20:26:02.711Z,88.73
2022-12-22T20:28:30.679Z,89.71
2022-12-22T20:31:02.663Z,90.72
2022-12-22T20:33:29.585Z,90.90
2022-12-22T20:35:59.929Z,91.61
2022-12-22T20:38:27.659Z,91.80
2022-12-22T20:40:54.900Z,92.41
2022-12-22T20:43:25.883Z,92.15
2022-12-22T20:45:53.362Z,92.23
2022-12-22T20:48:23.096Z,92.36
2022-12-22T20:50:50.209Z,92.19
2022-12-22T20:53:18.566Z,92.06
2022-12-22T20:55:46.300Z,92.09
2022-12-22T20:58:20.127Z,91.25
2022-12-22T21:00:46.832Z,91.75
2022-12-22T21:03:15.786Z,91.37
2022-12-22T21:05:42.550Z,91.32
2022-12-22T21:08:20.239Z,91.17
2022-12-22T21:10:53.143Z,91.41
2022-12-22T21:13:22.628Z,91.27
2022-12-22T21:15:49.971Z,91.23
2022-12-22T21:18:20.616Z,91.21
2022-12-22T21:20:50.100Z,91.21
2022-12-22T21:23:16.810Z,91.09
2022-12-22T21:25:46.674Z,91.09
2022-12-22T21:28:24.144Z,91.02
2022-12-22T21:30:50.792Z,90.80
2022-12-22T21:33:17.557Z,90.08
2022-12-22T21:35:44.114Z,89.95
2022-12-22T21:38:15.524Z,89.70
2022-12-22T21:40:42.315Z,89.71
2022-12-22T21:43:11.506Z,89.76
2022-12-22T21:45:42.704Z,89.02
2022-12-22T21:48:19.138Z,88.60
2022-12-22T21:50:50.346Z,88.69
2022-12-22T21:53:22.002Z,87.94
2022-12-22T21:55:50.246Z,87.57
2022-12-22T21:58:18.329Z,88.05
2022-12-22T22:00:46.635Z,87.88
2022-12-22T22:03:13.542Z,87.63
2022-12-22T22:05:40.205Z,87.29
2022-12-22T22:08:07.594Z,87.45
2022-12-22T22:10:38.301Z,85.76
2022-12-22T22:13:07.286Z,85.47
2022-12-22T22:15:36.321Z,85.35
2022-12-22T22:18:07.270Z,85.82
2022-12-22T22:20:34.749Z,85.93
2022-12-22T22:23:01.951Z,85.27
2022-12-22T22:25:28.601Z,84.51
2022-12-22T22:28:00.516Z,84.29
2022-12-22T22:30:27.268Z,84.42
2022-12-22T22:32:56.740Z,83.96
2022-12-22T22:35:26.171Z,83.60
2022-12-22T22:37:52.825Z,82.35
2022-12-22T22:40:20.701Z,82.75
2022-12-22T22:42:50.638Z,81.63
2022-12-22T22:45:28.080Z,82.83
2022-12-22T22:47:54.907Z,81.93
2022-12-22T22:50:24.475Z,82.44
2022-12-22T22:52:51.144Z,82.35
2022-12-22T22:55:20.314Z,82.11
2022-12-22T22:57:47.091Z,82.10
2022-12-22T23:00:14.859Z,80.95
2022-12-22T23:02:41.949Z,80.59
2022-12-22T23:05:09.138Z,80.35
2022-12-22T23:07:38.662Z,79.77
2022-12-22T23:10:07.914Z,80.08
2022-12-22T23:12:34.532Z,80.05
2022-12-22T23:15:01.956Z,79.98
2022-12-22T23:17:31.044Z,80.31
2022-12-22T23:20:00.339Z,78.40
2022-12-22T23:22:29.249Z,79.34
2022-12-22T23:24:58.808Z,79.77
2022-12-22T23:27:26.009Z,80.37
2022-12-22T23:29:52.633Z,80.50
2022-12-22T23:32:21.374Z,80.85
2022-12-22T23:34:50.673Z,80.45
2022-12-22T23:37:22.834Z,80.85
2022-12-22T23:39:49.423Z,80.44
2022-12-22T23:42:15.985Z,78.96
2022-12-22T23:44:42.586Z,77.91
2022-12-22T23:47:11.782Z,78.64
2022-12-22T23:49:41.554Z,79.38
2022-12-22T23:52:13.556Z,80.05
2022-12-22T23:54:40.183Z,79.52
2022-12-22T23:57:06.706Z,79.29
2022-12-22T23:59:35.630Z,79.74
